createdAt,value
2022-08-05T00:00:05.556Z,42.85
2022-08-05T00:01:20.574Z,42.89
2022-08-05T00:02:07.584Z,42.96
2022-08-05T00:03:04.642Z,42.96
2022-08-05T00:04:05.220Z,42.98
2022-08-05T00:05:05.832Z,42.89
2022-08-05T00:06:23.349Z,42.92
2022-08-05T00:07:26.987Z,42.92
2022-08-05T00:08:04.720Z,42.96
2022-08-05T00:09:05.418Z,43.10
2022-08-05T00:10:05.704Z,43.15
2022-08-05T00:11:20.265Z,43.18
2022-08-05T00:13:04.401Z,43.25
2022-08-05T00:14:11.958Z,43.40
2022-08-05T00:16:04.905Z,43.70
2022-08-05T00:18:04.508Z,43.77
2022-08-05T00:19:05.916Z,43.86
2022-08-05T00:20:05.472Z,43.91
2022-08-05T00:21:04.502Z,43.91
2022-08-05T00:22:05.015Z,43.99
2022-08-05T00:23:12.763Z,44.10
2022-08-05T00:24:10.604Z,44.08
2022-08-05T00:25:08.402Z,44.06
2022-08-05T00:26:04.586Z,44.13
2022-08-05T00:27:10.432Z,44.21
2022-08-05T00:30:05.692Z,44.35
2022-08-05T00:34:53.627Z,44.57
2022-08-05T00:38:04.450Z,44.86
2022-08-05T00:40:05.052Z,44.96
2022-08-05T00:42:04.660Z,45.00
2022-08-05T00:44:04.767Z,45.19
2022-08-05T00:45:08.486Z,45.30
2022-08-05T00:46:04.513Z,45.44
2022-08-05T00:47:05.816Z,45.53
2022-08-05T00:48:05.221Z,45.53
2022-08-05T00:50:04.555Z,45.54
2022-08-05T00:51:08.814Z,45.51
2022-08-05T00:52:04.562Z,45.51
2022-08-05T00:53:09.860Z,45.47
2022-08-05T00:54:04.631Z,45.46
2022-08-05T00:55:04.950Z,45.41
2022-08-05T00:56:05.591Z,45.41
2022-08-05T00:57:04.841Z,45.44
2022-08-05T00:58:04.795Z,45.51
2022-08-05T00:59:06.875Z,45.62
2022-08-05T01:00:07.130Z,45.63
2022-08-05T01:02:04.976Z,45.72
2022-08-05T01:03:07.946Z,45.79
2022-08-05T01:04:13.797Z,45.86
2022-08-05T01:05:05.192Z,45.89
2022-08-05T01:06:05.454Z,45.96
2022-08-05T01:07:05.255Z,45.96
2022-08-05T01:09:06.278Z,46.10
2022-08-05T01:13:22.349Z,46.59
2022-08-05T01:14:15.582Z,46.61
2022-08-05T01:15:35.064Z,46.69
2022-08-05T01:18:10.233Z,47.05
2022-08-05T01:19:20.311Z,47.04
2022-08-05T01:21:09.382Z,47.20
2022-08-05T01:23:23.717Z,47.31
2022-08-05T01:28:21.570Z,47.52
2022-08-05T01:31:15.787Z,47.57
2022-08-05T01:32:12.437Z,47.57
2022-08-05T01:33:08.683Z,47.65
2022-08-05T01:34:11.222Z,47.64
2022-08-05T01:35:10.954Z,47.71
2022-08-05T01:36:12.653Z,47.66
2022-08-05T01:37:17.995Z,47.67
2022-08-05T01:39:04.941Z,47.75
2022-08-05T01:40:05.939Z,47.67
2022-08-05T01:41:07.035Z,47.62
2022-08-05T01:42:07.573Z,47.73
2022-08-05T01:43:04.826Z,47.80
2022-08-05T01:44:09.731Z,47.75
2022-08-05T01:45:08.217Z,47.67
2022-08-05T01:46:07.160Z,47.45
2022-08-05T01:47:06.790Z,47.44
2022-08-05T01:48:10.457Z,47.30
2022-08-05T01:49:23.426Z,47.01
2022-08-05T01:50:07.411Z,46.93
2022-08-05T01:51:11.965Z,46.61
2022-08-05T01:52:17.412Z,46.32
2022-08-05T01:53:11.010Z,46.16
2022-08-05T01:54:08.166Z,45.72
2022-08-05T01:55:09.406Z,45.48
2022-08-05T01:56:05.317Z,45.24
2022-08-05T01:58:11.440Z,44.88
2022-08-05T01:58:29.945Z,44.78
2022-08-05T01:59:10.072Z,44.71
2022-08-05T02:00:11.638Z,44.70
2022-08-05T02:03:23.984Z,44.86
2022-08-05T02:04:05.859Z,44.92
2022-08-05T02:05:11.762Z,44.44
2022-08-05T02:06:33.512Z,44.46
2022-08-05T02:07:06.155Z,44.44
2022-08-05T02:08:04.985Z,44.23
2022-08-05T02:09:05.791Z,44.11
2022-08-05T02:10:05.925Z,43.82
2022-08-05T02:11:11.782Z,43.72
2022-08-05T02:12:10.478Z,43.53
2022-08-05T02:13:17.113Z,43.53
2022-08-05T02:14:12.989Z,43.39
2022-08-05T02:15:18.447Z,43.45
2022-08-05T02:16:16.408Z,43.38
2022-08-05T02:17:16.782Z,43.58
2022-08-05T02:18:30.645Z,43.45
2022-08-05T02:19:14.443Z,43.72
2022-08-05T02:20:10.924Z,43.71
2022-08-05T02:21:14.763Z,43.61
2022-08-05T02:22:17.510Z,43.50
2022-08-05T02:23:09.628Z,43.24
2022-08-05T02:24:08.809Z,43.04
2022-08-05T02:25:09.413Z,41.75
2022-08-05T02:26:08.086Z,41.47
2022-08-05T02:27:09.870Z,41.15
2022-08-05T02:28:08.845Z,41.32
2022-08-05T02:29:04.824Z,41.31
2022-08-05T02:30:04.961Z,41.33
2022-08-05T02:31:14.559Z,41.23
2022-08-05T02:32:06.927Z,40.75
2022-08-05T02:33:08.285Z,40.90
2022-08-05T02:34:09.906Z,40.23
2022-08-05T02:35:14.171Z,39.66
2022-08-05T02:36:06.987Z,38.93
2022-08-05T02:37:09.204Z,38.84
2022-08-05T02:38:04.846Z,38.76
2022-08-05T02:40:05.228Z,38.78
2022-08-05T02:41:17.277Z,38.82
2022-08-05T02:42:05.790Z,39.00
2022-08-05T02:43:07.156Z,39.16
2022-08-05T02:44:11.270Z,39.37
2022-08-05T02:45:05.745Z,39.58
2022-08-05T02:46:04.657Z,39.77
2022-08-05T02:47:06.483Z,39.81
2022-08-05T02:48:11.456Z,39.96
2022-08-05T02:49:05.020Z,40.37
2022-08-05T02:50:07.313Z,40.67
2022-08-05T02:51:05.293Z,40.15
2022-08-05T02:52:08.601Z,40.28
2022-08-05T02:53:05.120Z,40.70
2022-08-05T02:54:05.722Z,40.96
2022-08-05T02:55:06.581Z,41.11
2022-08-05T02:56:05.111Z,41.28
2022-08-05T02:57:10.117Z,41.39
2022-08-05T02:58:11.080Z,41.50
2022-08-05T02:59:06.043Z,41.46
2022-08-05T03:00:04.968Z,41.92
2022-08-05T03:01:05.285Z,42.01
2022-08-05T03:02:05.765Z,42.32
2022-08-05T03:03:07.577Z,42.30
2022-08-05T03:04:14.403Z,42.07
2022-08-05T03:05:07.078Z,42.12
2022-08-05T03:06:54.423Z,41.95
2022-08-05T03:07:05.047Z,42.23
2022-08-05T03:08:08.609Z,42.43
2022-08-05T03:09:04.884Z,42.60
2022-08-05T03:10:04.679Z,42.86
2022-08-05T03:12:05.146Z,42.68
2022-08-05T03:13:16.563Z,42.71
2022-08-05T03:14:04.282Z,42.83
2022-08-05T03:16:04.275Z,43.31
2022-08-05T03:17:08.964Z,43.46
2022-08-05T03:19:12.831Z,43.80
2022-08-05T03:20:06.396Z,43.63
2022-08-05T03:21:04.265Z,43.81
2022-08-05T03:22:05.116Z,44.06
2022-08-05T03:23:07.892Z,44.25
2022-08-05T03:24:05.281Z,43.69
2022-08-05T03:25:18.802Z,43.84
2022-08-05T03:26:30.913Z,43.91
2022-08-05T03:27:06.655Z,43.83
2022-08-05T03:28:06.334Z,44.00
2022-08-05T03:29:04.826Z,44.21
2022-08-05T03:30:08.143Z,44.14
2022-08-05T03:31:05.217Z,44.19
2022-08-05T03:33:07.516Z,44.44
2022-08-05T03:34:06.069Z,44.43
2022-08-05T03:35:05.543Z,44.42
2022-08-05T03:36:06.549Z,44.46
2022-08-05T03:37:06.146Z,44.48
2022-08-05T03:38:04.242Z,44.71
2022-08-05T03:39:08.543Z,44.94
2022-08-05T03:40:08.766Z,44.84
2022-08-05T03:41:08.298Z,45.12
2022-08-05T03:42:04.841Z,45.34
2022-08-05T03:43:15.940Z,45.30
2022-08-05T03:44:11.825Z,45.31
2022-08-05T03:45:22.041Z,45.71
2022-08-05T03:46:04.718Z,45.98
2022-08-05T03:47:04.230Z,46.01
2022-08-05T03:48:04.594Z,46.04
2022-08-05T03:49:04.495Z,46.06
2022-08-05T03:50:04.569Z,46.26
2022-08-05T03:52:37.633Z,46.41
2022-08-05T03:52:38.251Z,46.67
2022-08-05T03:55:50.630Z,46.68
2022-08-05T03:55:52.077Z,46.96
2022-08-05T03:56:09.579Z,46.95
2022-08-05T03:56:17.301Z,46.89
2022-08-05T03:57:16.762Z,46.92
2022-08-05T03:58:09.286Z,47.03
2022-08-05T03:59:11.310Z,47.01
2022-08-05T04:00:08.644Z,47.04
2022-08-05T04:01:08.020Z,47.10
2022-08-05T04:04:10.688Z,47.07
2022-08-05T04:05:06.184Z,47.02
2022-08-05T04:06:06.096Z,47.14
2022-08-05T04:07:05.850Z,47.05
2022-08-05T04:08:14.480Z,47.12
2022-08-05T04:10:04.512Z,47.54
2022-08-05T04:11:08.584Z,47.43
2022-08-05T04:12:04.450Z,47.38
2022-08-05T04:13:04.972Z,47.43
2022-08-05T04:14:05.181Z,47.62
2022-08-05T04:15:04.669Z,47.33
2022-08-05T04:16:05.004Z,47.47
2022-08-05T04:17:04.455Z,47.59
2022-08-05T04:18:07.426Z,47.66
2022-08-05T04:19:10.731Z,47.73
2022-08-05T04:20:05.543Z,47.89
2022-08-05T04:21:05.581Z,48.06
2022-08-05T04:22:09.258Z,47.96
2022-08-05T04:23:04.690Z,48.09
2022-08-05T04:24:08.812Z,48.23
2022-08-05T04:25:04.292Z,48.35
2022-08-05T04:26:04.584Z,48.25
2022-08-05T04:27:04.292Z,48.39
2022-08-05T04:28:11.107Z,48.31
2022-08-05T04:29:07.374Z,48.62
2022-08-05T04:30:04.819Z,48.80
2022-08-05T04:31:08.392Z,48.91
2022-08-05T04:32:04.341Z,49.10
2022-08-05T04:33:04.201Z,49.03
2022-08-05T04:34:33.149Z,49.17
2022-08-05T04:35:04.667Z,49.39
2022-08-05T04:36:10.640Z,49.60
2022-08-05T04:37:04.931Z,49.68
2022-08-05T04:38:06.812Z,49.89
2022-08-05T04:39:04.455Z,49.86
2022-08-05T04:40:04.655Z,50.06
2022-08-05T04:41:04.221Z,50.18
2022-08-05T04:42:04.503Z,50.18
2022-08-05T04:43:04.642Z,50.18
2022-08-05T04:44:09.668Z,50.13
2022-08-05T04:45:05.038Z,50.24
2022-08-05T04:46:05.167Z,50.18
2022-08-05T04:47:08.806Z,50.39
2022-08-05T04:48:16.346Z,50.51
2022-08-05T04:49:04.252Z,50.51
2022-08-05T04:50:11.457Z,50.70
2022-08-05T04:51:11.524Z,50.86
2022-08-05T04:52:04.216Z,50.91
2022-08-05T04:53:04.227Z,51.06
2022-08-05T04:54:04.268Z,51.19
2022-08-05T04:55:14.581Z,51.28
2022-08-05T04:56:33.150Z,51.28
2022-08-05T04:57:04.287Z,51.39
2022-08-05T04:58:07.201Z,51.44
2022-08-05T04:59:22.072Z,51.60
2022-08-05T05:00:05.822Z,51.61
2022-08-05T05:01:04.292Z,51.63
2022-08-05T05:02:07.589Z,51.83
2022-08-05T05:03:05.679Z,51.69
2022-08-05T05:04:04.675Z,51.79
2022-08-05T05:05:16.908Z,51.86
2022-08-05T05:06:40.376Z,51.95
2022-08-05T05:07:04.279Z,51.92
2022-08-05T05:08:14.189Z,52.13
2022-08-05T05:09:05.579Z,52.18
2022-08-05T05:10:06.702Z,52.39
2022-08-05T05:11:04.947Z,52.50
2022-08-05T05:12:04.512Z,52.75
2022-08-05T05:13:04.656Z,52.77
2022-08-05T05:14:04.548Z,53.23
2022-08-05T05:15:06.113Z,53.00
2022-08-05T05:16:06.124Z,53.27
2022-08-05T05:17:07.430Z,53.23
2022-08-05T05:18:05.047Z,53.10
2022-08-05T05:19:18.671Z,53.43
2022-08-05T05:20:05.492Z,53.37
2022-08-05T05:21:05.514Z,53.43
2022-08-05T05:22:22.546Z,53.49
2022-08-05T05:23:08.403Z,53.48
2022-08-05T05:24:09.099Z,53.64
2022-08-05T05:25:16.045Z,53.64
2022-08-05T05:26:05.675Z,53.72
2022-08-05T05:28:04.721Z,53.87
2022-08-05T05:29:14.345Z,53.98
2022-08-05T05:30:05.909Z,54.08
2022-08-05T05:31:05.766Z,54.14
2022-08-05T05:32:04.648Z,54.26
2022-08-05T05:33:16.625Z,54.25
2022-08-05T05:36:04.676Z,54.35
2022-08-05T05:39:04.956Z,54.53
2022-08-05T05:40:04.732Z,54.62
2022-08-05T05:41:05.036Z,54.71
2022-08-05T05:42:04.720Z,54.91
2022-08-05T05:43:04.823Z,55.05
2022-08-05T05:44:04.663Z,55.15
2022-08-05T05:45:04.718Z,55.28
2022-08-05T05:46:05.291Z,55.53
2022-08-05T05:47:13.166Z,55.58
2022-08-05T05:48:08.284Z,55.86
2022-08-05T05:49:06.435Z,56.07
2022-08-05T05:50:04.831Z,56.43
2022-08-05T05:51:15.042Z,56.59
2022-08-05T05:52:05.911Z,57.01
2022-08-05T05:53:20.904Z,57.00
2022-08-05T05:54:04.523Z,57.33
2022-08-05T05:55:13.588Z,57.49
2022-08-05T05:56:04.624Z,57.47
2022-08-05T05:57:04.783Z,57.65
2022-08-05T05:58:04.723Z,57.87
2022-08-05T05:59:07.742Z,58.36
2022-08-05T06:00:05.922Z,58.34
2022-08-05T06:01:12.702Z,58.42
2022-08-05T06:02:04.502Z,58.76
2022-08-05T06:03:39.738Z,59.27
2022-08-05T06:04:04.759Z,59.48
2022-08-05T06:05:04.894Z,60.19
2022-08-05T06:06:06.820Z,60.37
2022-08-05T06:07:04.537Z,60.92
2022-08-05T06:08:04.791Z,61.14
2022-08-05T06:09:06.124Z,61.12
2022-08-05T06:10:10.127Z,62.03
2022-08-05T06:11:04.811Z,62.25
2022-08-05T06:12:05.072Z,62.00
2022-08-05T06:13:05.500Z,62.29
2022-08-05T06:14:04.582Z,62.57
2022-08-05T06:15:06.252Z,62.53
2022-08-05T06:16:30.435Z,62.98
2022-08-05T06:17:31.956Z,63.15
2022-08-05T06:18:04.515Z,63.16
2022-08-05T06:19:05.685Z,63.45
2022-08-05T06:20:05.838Z,63.34
2022-08-05T06:21:04.988Z,63.51
2022-08-05T06:22:06.437Z,63.82
2022-08-05T06:23:04.579Z,64.16
2022-08-05T06:24:05.091Z,64.07
2022-08-05T06:25:59.079Z,64.04
2022-08-05T06:26:13.606Z,64.30
2022-08-05T06:27:04.653Z,64.14
2022-08-05T06:28:11.255Z,64.40
2022-08-05T06:29:25.551Z,64.49
2022-08-05T06:30:17.773Z,64.81
2022-08-05T06:31:11.141Z,64.92
2022-08-05T06:32:04.624Z,65.28
2022-08-05T06:33:04.508Z,65.71
2022-08-05T06:34:07.357Z,66.02
2022-08-05T06:35:05.952Z,66.14
2022-08-05T06:36:09.574Z,66.82
2022-08-05T06:37:04.718Z,66.72
2022-08-05T06:38:08.324Z,67.25
2022-08-05T06:39:04.696Z,67.70
2022-08-05T06:40:04.910Z,67.85
2022-08-05T06:41:05.093Z,67.88
2022-08-05T06:42:04.656Z,67.91
2022-08-05T06:43:04.605Z,68.38
2022-08-05T06:44:04.723Z,68.38
2022-08-05T06:45:08.681Z,68.32
2022-08-05T06:47:04.629Z,68.40
2022-08-05T06:48:35.893Z,68.42
2022-08-05T06:49:07.683Z,68.56
2022-08-05T06:50:05.107Z,68.55
2022-08-05T06:52:04.681Z,68.55
2022-08-05T06:53:19.497Z,68.57
2022-08-05T06:54:05.832Z,68.69
2022-08-05T06:55:04.620Z,68.86
2022-08-05T06:57:56.756Z,68.99
2022-08-05T06:58:19.751Z,68.93
2022-08-05T06:59:09.540Z,68.87
2022-08-05T07:00:05.286Z,68.89
2022-08-05T07:03:04.569Z,68.80
2022-08-05T07:07:07.995Z,68.64
2022-08-05T07:08:04.598Z,68.52
2022-08-05T07:09:05.358Z,68.76
2022-08-05T07:10:04.830Z,68.58
2022-08-05T07:13:13.825Z,68.32
2022-08-05T07:14:15.845Z,68.11
2022-08-05T07:15:13.867Z,68.04
2022-08-05T07:18:02.207Z,67.98
2022-08-05T07:18:08.338Z,67.91
2022-08-05T07:19:05.292Z,67.80
2022-08-05T07:21:06.348Z,67.55
2022-08-05T07:23:04.696Z,67.31
2022-08-05T07:24:04.730Z,67.44
2022-08-05T07:26:05.140Z,67.36
2022-08-05T07:28:09.628Z,67.25
2022-08-05T07:29:05.168Z,67.29
2022-08-05T07:31:04.534Z,67.47
2022-08-05T07:32:04.614Z,67.57
2022-08-05T07:33:09.530Z,67.78
2022-08-05T07:34:05.101Z,67.83
2022-08-05T07:35:56.790Z,67.93
2022-08-05T07:36:21.524Z,68.26
2022-08-05T07:37:04.525Z,68.48
2022-08-05T07:38:04.510Z,68.47
2022-08-05T07:39:07.258Z,68.53
2022-08-05T07:40:31.885Z,68.76
2022-08-05T07:41:35.152Z,68.93
2022-08-05T07:42:13.563Z,69.08
2022-08-05T07:43:14.539Z,69.19
2022-08-05T07:44:14.229Z,69.51
2022-08-05T07:45:09.347Z,69.50
2022-08-05T07:46:04.430Z,69.60
2022-08-05T07:51:04.690Z,69.97
2022-08-05T07:52:04.569Z,69.92
2022-08-05T07:54:04.476Z,70.29
2022-08-05T07:55:04.598Z,70.30
2022-08-05T07:56:39.050Z,70.47
2022-08-05T07:59:04.467Z,70.67
2022-08-05T08:00:06.420Z,70.83
2022-08-05T08:01:06.212Z,70.99
2022-08-05T08:02:04.498Z,70.98
2022-08-05T08:04:04.478Z,71.18
2022-08-05T08:05:04.626Z,71.30
2022-08-05T08:06:04.580Z,71.58
2022-08-05T08:07:07.203Z,71.60
2022-08-05T08:08:04.492Z,71.83
2022-08-05T08:09:04.589Z,71.93
2022-08-05T08:10:07.285Z,72.02
2022-08-05T08:11:04.434Z,72.24
2022-08-05T08:12:11.476Z,72.37
2022-08-05T08:13:05.732Z,72.51
2022-08-05T08:14:04.793Z,72.68
2022-08-05T08:15:09.378Z,72.81
2022-08-05T08:16:50.307Z,72.79
2022-08-05T08:17:04.440Z,72.93
2022-08-05T08:18:09.509Z,72.88
2022-08-05T08:19:05.556Z,73.02
2022-08-05T08:20:44.124Z,73.01
2022-08-05T08:21:09.469Z,73.01
2022-08-05T08:23:04.628Z,73.03
2022-08-05T08:26:04.860Z,73.13
2022-08-05T08:28:05.476Z,73.24
2022-08-05T08:29:45.299Z,73.43
2022-08-05T08:31:05.306Z,73.50
2022-08-05T08:33:13.924Z,73.48
2022-08-05T08:34:04.414Z,73.52
2022-08-05T08:35:04.586Z,73.55
2022-08-05T08:36:29.855Z,73.62
2022-08-05T08:38:04.676Z,73.74
2022-08-05T08:39:04.715Z,73.79
2022-08-05T08:40:05.748Z,73.70
2022-08-05T08:41:08.751Z,73.64
2022-08-05T08:45:21.152Z,73.47
2022-08-05T08:45:25.092Z,73.39
2022-08-05T08:46:05.387Z,73.30
2022-08-05T08:47:46.833Z,73.23
2022-08-05T08:50:04.091Z,73.04
2022-08-05T08:50:22.892Z,72.93
2022-08-05T08:52:13.674Z,72.82
2022-08-05T08:53:11.854Z,72.76
2022-08-05T08:54:05.247Z,72.77
2022-08-05T08:55:13.174Z,72.67
2022-08-05T08:56:06.237Z,72.65
2022-08-05T08:57:11.615Z,72.52
2022-08-05T08:58:04.849Z,72.44
2022-08-05T08:59:09.769Z,72.28
2022-08-05T09:00:06.009Z,72.13
2022-08-05T09:01:04.710Z,72.02
2022-08-05T09:02:08.612Z,71.91
2022-08-05T09:03:06.928Z,71.81
2022-08-05T09:04:04.556Z,71.74
2022-08-05T09:06:09.180Z,71.58
2022-08-05T09:07:10.642Z,71.49
2022-08-05T09:09:04.778Z,71.31
2022-08-05T09:10:06.442Z,71.24
2022-08-05T09:11:04.453Z,71.22
2022-08-05T09:13:05.173Z,71.14
2022-08-05T09:15:06.522Z,71.13
2022-08-05T09:16:08.383Z,71.07
2022-08-05T09:17:09.502Z,71.04
2022-08-05T09:19:06.797Z,71.07
2022-08-05T09:25:13.522Z,71.12
2022-08-05T09:27:09.902Z,71.35
2022-08-05T09:28:15.608Z,71.53
2022-08-05T09:29:07.351Z,71.71
2022-08-05T09:30:07.046Z,71.86
2022-08-05T09:31:22.890Z,72.08
2022-08-05T09:32:42.090Z,72.45
2022-08-05T09:33:04.930Z,72.51
2022-08-05T09:34:06.933Z,72.69
2022-08-05T09:35:12.870Z,72.88
2022-08-05T09:36:11.594Z,73.04
2022-08-05T09:37:15.233Z,73.25
2022-08-05T09:38:12.148Z,73.34
2022-08-05T09:39:16.776Z,73.48
2022-08-05T09:40:05.397Z,73.46
2022-08-05T09:41:06.209Z,73.56
2022-08-05T09:42:07.907Z,73.65
2022-08-05T09:43:08.580Z,73.80
2022-08-05T09:44:04.519Z,73.89
2022-08-05T09:45:17.992Z,73.99
2022-08-05T09:46:08.822Z,73.97
2022-08-05T09:47:15.612Z,74.04
2022-08-05T09:48:22.350Z,74.07
2022-08-05T09:49:19.199Z,74.12
2022-08-05T09:50:05.527Z,74.12
2022-08-05T09:51:15.371Z,74.16
2022-08-05T09:52:19.499Z,74.19
2022-08-05T09:53:04.375Z,74.29
2022-08-05T09:54:07.647Z,74.36
2022-08-05T09:55:55.100Z,74.49
2022-08-05T09:56:13.304Z,74.63
2022-08-05T09:57:04.543Z,74.83
2022-08-05T09:58:14.588Z,74.97
2022-08-05T09:59:05.802Z,75.17
2022-08-05T10:00:10.486Z,75.34
2022-08-05T10:01:15.015Z,75.54
2022-08-05T10:02:04.349Z,75.67
2022-08-05T10:03:11.162Z,75.86
2022-08-05T10:04:10.328Z,76.00
2022-08-05T10:05:08.563Z,76.21
2022-08-05T10:06:14.656Z,76.33
2022-08-05T10:07:19.640Z,76.44
2022-08-05T10:08:36.586Z,76.58
2022-08-05T10:09:27.967Z,76.67
2022-08-05T10:12:18.882Z,76.94
2022-08-05T10:13:09.726Z,77.03
2022-08-05T10:14:23.104Z,77.12
2022-08-05T10:19:09.110Z,77.37
2022-08-05T10:20:10.121Z,77.39
2022-08-05T10:22:04.404Z,77.48
2022-08-05T10:23:05.318Z,77.53
2022-08-05T10:24:10.936Z,77.53
2022-08-05T10:25:04.469Z,77.52
2022-08-05T10:26:07.371Z,77.48
2022-08-05T10:27:04.574Z,77.46
2022-08-05T10:28:13.192Z,77.44
2022-08-05T10:29:04.679Z,77.43
2022-08-05T10:32:47.177Z,77.43
2022-08-05T10:34:07.169Z,77.35
2022-08-05T10:35:04.583Z,77.31
2022-08-05T10:37:04.365Z,77.29
2022-08-05T10:38:05.715Z,77.29
2022-08-05T10:40:18.533Z,77.31
2022-08-05T10:42:18.368Z,77.32
2022-08-05T10:43:13.137Z,77.31
2022-08-05T10:44:09.923Z,77.33
2022-08-05T10:49:10.468Z,77.42
2022-08-05T10:53:04.429Z,77.36
2022-08-05T10:55:07.396Z,77.30
2022-08-05T10:56:21.215Z,77.29
2022-08-05T10:57:04.321Z,77.32
2022-08-05T10:58:15.616Z,77.31
2022-08-05T10:59:12.085Z,77.33
2022-08-05T11:04:06.575Z,77.20
2022-08-05T11:06:16.210Z,77.16
2022-08-05T11:09:32.463Z,77.12
2022-08-05T11:15:19.555Z,77.08
2022-08-05T11:18:16.880Z,76.92
2022-08-05T11:20:11.436Z,76.92
2022-08-05T11:21:11.230Z,76.99
2022-08-05T11:22:22.215Z,77.06
2022-08-05T11:26:04.252Z,77.05
2022-08-05T11:26:09.080Z,77.07
2022-08-05T11:30:05.389Z,76.86
2022-08-05T11:31:13.028Z,76.82
2022-08-05T11:32:22.249Z,76.81
2022-08-05T11:33:22.187Z,76.81
2022-08-05T11:35:04.421Z,76.86
2022-08-05T11:36:08.595Z,76.85
2022-08-05T11:38:14.231Z,76.84
2022-08-05T11:39:04.555Z,76.84
2022-08-05T11:42:05.325Z,76.75
2022-08-05T11:44:10.846Z,76.83
2022-08-05T11:45:14.538Z,76.87
2022-08-05T11:46:27.532Z,76.87
2022-08-05T11:49:06.307Z,76.92
2022-08-05T11:50:05.781Z,76.93
2022-08-05T11:51:04.329Z,77.01
2022-08-05T11:52:11.475Z,77.10
2022-08-05T11:54:04.401Z,77.16
2022-08-05T11:55:07.512Z,77.08
2022-08-05T11:56:04.628Z,77.10
2022-08-05T11:57:08.310Z,77.17
2022-08-05T11:58:09.203Z,77.13
2022-08-05T11:59:04.282Z,77.13
2022-08-05T12:00:05.416Z,77.08
2022-08-05T12:01:08.536Z,77.14
2022-08-05T12:02:23.747Z,77.18
2022-08-05T12:03:29.105Z,77.19
2022-08-05T12:04:04.581Z,77.25
2022-08-05T12:05:07.888Z,77.24
2022-08-05T12:06:10.044Z,77.23
2022-08-05T12:07:04.681Z,77.29
2022-08-05T12:08:09.902Z,77.23
2022-08-05T12:10:09.502Z,77.29
2022-08-05T12:12:05.552Z,77.24
2022-08-05T12:14:07.659Z,77.17
2022-08-05T12:17:36.143Z,77.01
2022-08-05T12:18:11.092Z,76.98
2022-08-05T12:24:07.401Z,76.90
2022-08-05T12:26:04.372Z,76.76
2022-08-05T12:27:09.492Z,76.78
2022-08-05T12:28:04.406Z,76.73
2022-08-05T12:31:05.065Z,76.69
2022-08-05T12:33:07.463Z,76.64
2022-08-05T12:36:08.061Z,76.69
2022-08-05T12:37:26.954Z,76.66
2022-08-05T12:38:06.210Z,76.61
2022-08-05T12:39:07.031Z,76.55
2022-08-05T12:40:11.170Z,76.50
2022-08-05T12:41:04.292Z,76.43
2022-08-05T12:45:09.665Z,76.27
2022-08-05T12:46:04.273Z,76.23
2022-08-05T12:48:27.570Z,76.17
2022-08-05T12:49:13.210Z,76.12
2022-08-05T12:54:16.515Z,76.07
2022-08-05T12:56:34.253Z,76.10
2022-08-05T12:57:09.185Z,76.13
2022-08-05T12:58:50.017Z,76.15
2022-08-05T12:59:14.607Z,76.25
2022-08-05T13:01:58.298Z,76.30
2022-08-05T13:02:04.443Z,76.34
2022-08-05T13:04:07.541Z,76.30
2022-08-05T13:05:07.790Z,76.36
2022-08-05T13:07:16.104Z,76.42
2022-08-05T13:09:09.752Z,76.46
2022-08-05T13:11:04.556Z,76.51
2022-08-05T13:12:07.527Z,76.53
2022-08-05T13:13:08.871Z,76.56
2022-08-05T13:14:07.671Z,76.60
2022-08-05T13:15:05.561Z,76.69
2022-08-05T13:16:04.340Z,76.67
2022-08-05T13:17:10.479Z,76.71
2022-08-05T13:18:04.269Z,76.77
2022-08-05T13:19:04.232Z,76.80
2022-08-05T13:20:11.493Z,76.90
2022-08-05T13:21:04.285Z,77.05
2022-08-05T13:22:04.409Z,77.20
2022-08-05T13:23:07.080Z,77.30
2022-08-05T13:28:05.305Z,77.45
2022-08-05T13:31:14.065Z,77.50
2022-08-05T13:34:22.288Z,77.57
2022-08-05T13:37:04.196Z,77.66
2022-08-05T13:38:04.930Z,77.69
2022-08-05T13:39:08.411Z,77.72
2022-08-05T13:40:15.038Z,77.75
2022-08-05T13:42:04.389Z,77.86
2022-08-05T13:44:04.865Z,77.93
2022-08-05T13:46:04.235Z,77.97
2022-08-05T13:47:08.985Z,77.96
2022-08-05T13:48:08.547Z,77.98
2022-08-05T13:49:04.532Z,78.04
2022-08-05T13:50:06.829Z,78.01
2022-08-05T13:51:08.547Z,78.05
2022-08-05T13:52:14.029Z,78.05
2022-08-05T13:53:04.252Z,78.14
2022-08-05T13:54:12.620Z,78.23
2022-08-05T13:55:07.279Z,78.37
2022-08-05T13:56:04.688Z,78.43
2022-08-05T13:57:05.591Z,78.49
2022-08-05T13:58:04.160Z,78.49
2022-08-05T13:59:06.000Z,78.54
2022-08-05T14:00:04.943Z,78.57
2022-08-05T14:01:04.229Z,78.60
2022-08-05T14:02:05.968Z,78.63
2022-08-05T14:03:04.246Z,78.64
2022-08-05T14:04:13.622Z,78.64
2022-08-05T14:05:15.193Z,78.65
2022-08-05T14:06:25.426Z,78.62
2022-08-05T14:07:26.303Z,78.62
2022-08-05T14:08:11.367Z,78.60
2022-08-05T14:09:08.269Z,78.63
2022-08-05T14:10:10.973Z,78.64
2022-08-05T14:11:19.954Z,78.83
2022-08-05T14:12:18.060Z,78.90
2022-08-05T14:13:04.364Z,79.00
2022-08-05T14:14:04.244Z,79.10
2022-08-05T14:17:05.700Z,79.30
2022-08-05T14:18:05.242Z,79.32
2022-08-05T14:19:04.769Z,79.33
2022-08-05T14:20:07.469Z,79.35
2022-08-05T14:21:24.064Z,79.35
2022-08-05T14:22:10.245Z,79.39
2022-08-05T14:23:04.229Z,79.38
2022-08-05T14:24:04.565Z,79.38
2022-08-05T14:25:21.792Z,79.39
2022-08-05T14:26:04.951Z,79.44
2022-08-05T14:27:17.829Z,79.46
2022-08-05T14:28:04.319Z,79.46
2022-08-05T14:29:04.691Z,79.46
2022-08-05T14:30:04.777Z,79.46
2022-08-05T14:31:04.275Z,79.47
2022-08-05T14:32:27.177Z,79.48
2022-08-05T14:33:04.999Z,79.50
2022-08-05T14:34:04.247Z,79.51
2022-08-05T14:35:04.967Z,79.51
2022-08-05T14:36:05.239Z,79.54
2022-08-05T14:37:05.088Z,79.54
2022-08-05T14:38:04.243Z,79.53
2022-08-05T14:39:06.079Z,79.51
2022-08-05T14:40:05.529Z,79.48
2022-08-05T14:41:06.884Z,79.42
2022-08-05T14:42:19.527Z,79.37
2022-08-05T14:43:04.459Z,79.35
2022-08-05T14:44:09.849Z,79.34
2022-08-05T14:49:07.979Z,79.50
2022-08-05T14:53:05.809Z,79.50
2022-08-05T14:55:04.492Z,79.56
2022-08-05T14:56:04.206Z,79.59
2022-08-05T14:59:04.229Z,79.64
2022-08-05T15:00:06.178Z,79.66
2022-08-05T15:01:04.498Z,79.69
2022-08-05T15:02:15.695Z,79.70
2022-08-05T15:03:06.160Z,79.77
2022-08-05T15:04:04.354Z,79.78
2022-08-05T15:05:13.250Z,79.80
2022-08-05T15:06:07.925Z,79.80
2022-08-05T15:07:04.139Z,79.83
2022-08-05T15:09:04.396Z,79.89
2022-08-05T15:11:03.961Z,79.88
2022-08-05T15:12:04.126Z,79.85
2022-08-05T15:13:05.398Z,79.81
2022-08-05T15:14:05.538Z,79.77
2022-08-05T15:15:03.953Z,79.70
2022-08-05T15:16:04.575Z,79.69
2022-08-05T15:17:04.885Z,79.70
2022-08-05T15:18:05.549Z,79.66
2022-08-05T15:19:03.802Z,79.59
2022-08-05T15:20:05.034Z,79.59
2022-08-05T15:21:07.332Z,79.63
2022-08-05T15:22:03.842Z,79.65
2022-08-05T15:23:08.838Z,79.71
2022-08-05T15:24:03.819Z,79.79
2022-08-05T15:25:13.826Z,79.87
2022-08-05T15:26:03.858Z,79.89
2022-08-05T15:27:04.011Z,79.88
2022-08-05T15:28:04.113Z,79.87
2022-08-05T15:29:03.968Z,79.84
2022-08-05T15:30:04.550Z,79.84
2022-08-05T15:31:03.823Z,79.87
2022-08-05T15:32:05.905Z,79.89
2022-08-05T15:33:04.665Z,79.89
2022-08-05T15:34:18.370Z,79.90
2022-08-05T15:35:10.827Z,79.95
2022-08-05T15:36:05.354Z,79.96
2022-08-05T15:37:06.851Z,79.95
2022-08-05T15:38:04.345Z,79.95
2022-08-05T15:40:40.943Z,79.92
2022-08-05T15:41:00.431Z,79.92
2022-08-05T15:41:22.171Z,79.97
2022-08-05T15:42:54.624Z,80.08
2022-08-05T15:43:12.540Z,80.15
2022-08-05T15:44:03.986Z,80.18
2022-08-05T15:45:06.056Z,80.16
2022-08-05T15:46:03.845Z,80.15
2022-08-05T15:48:04.492Z,80.18
2022-08-05T15:49:10.787Z,80.18
2022-08-05T15:51:05.864Z,80.21
2022-08-05T15:53:05.650Z,80.24
2022-08-05T15:54:03.854Z,80.25
2022-08-05T15:55:05.634Z,80.25
2022-08-05T15:56:07.105Z,80.21
2022-08-05T15:57:04.090Z,80.21
2022-08-05T15:58:03.911Z,80.26
2022-08-05T15:59:04.329Z,80.25
2022-08-05T16:00:05.982Z,80.30
2022-08-05T16:01:15.858Z,80.36
2022-08-05T16:02:03.853Z,80.41
2022-08-05T16:03:03.947Z,80.46
2022-08-05T16:05:05.294Z,80.57
2022-08-05T16:09:04.619Z,80.73
2022-08-05T16:11:04.197Z,80.91
2022-08-05T16:12:04.029Z,81.01
2022-08-05T16:13:03.787Z,81.06
2022-08-05T16:15:04.101Z,81.09
2022-08-05T16:18:04.132Z,80.96
2022-08-05T16:19:04.493Z,80.94
2022-08-05T16:20:12.082Z,81.03
2022-08-05T16:21:04.718Z,81.15